Terminal Aerodrome Forecast
Issued by NWS

Home | Current Version | Previous Version | Text Only | Print | Product List | Glossary On
Versions: 1 2 3 4 5 6 7 8 9 10 11 12 13 14 15 16 17 18 19 20 21 22 23 24 25 26 27 28
252
FTUS43 KGRR 221522 AAB
TAFMKG
TAF AMD
KMKG 221522Z 2215/2312 20010KT 1/4SM FG OVC002
     FM221800 20012KT 2SM BR OVC008
     FM222000 19014G22KT P6SM FEW025
     FM230500 23010KT 6SM HZ BKN040
     FM230900 25008KT 4SM BR OVC010=

USA.gov is the U.S. government's official web portal to all federal, state and local government web resources and services.